메인 페이지
METAR-TAF:

METAR-TAF

공항 :

자포리자, 우크라이나

위도: 47-52-02N, 경도: 035-18-59E, 고도: 114m

현재 날씨관측

예보는 20분 전, 10:00시(UTC)에 발표되었습니다.
10kt북동풍과 남동풍을 오가는
온도 1°C
습도 93%
기압 1019 hPa
시정: 4800m
고도 400ft 상공 흐림
박무

METAR: UKDE 121000Z 09005MPS 050V140 4800 BR OVC004 01/00 Q1019 R20L/290558 NOSIG

시각: 12:20 (10:20 UTC)

예보

예보는 2 시간 15분 전, 08:05시(UTC)에 발표되었습니다.
예보 대상 시간: 12일 09시부터 12일 18시까지 (UTC)
10kt
시정: 2100m
고도 300ft 상공 흐림
박무
일시적
12일 09시부터 12일 14시까지 (UTC)
시정: 0500m
고도 100ft 상공
안개
일시적
12일 14시부터 12일 18시까지 (UTC)
시정: 0200m
고도 100ft 상공
어는 안개

TAF: UKDE 120805Z 1209/1218 08005MPS 2100 BR OVC003 TX03/1212Z TNM00/1218Z TEMPO 1209/1214 0500 FG VV001 TEMPO 1214/1218 0200 FZFG VV001

4,000개 이상의 공항 관측 자료 및 예보 (METAR 및 TAF 보고).

지도상에서 검색 가능한 기상관측소가 노란 점과 빨간 점으로 표시되어 있습니다.

기상관측소 명을 보려면 표시 위로 마우스를 이동하세요.

날씨 관측과 예보를 보려면 클릭하세요.

지도 변경 : 확대하려면 엑스 표시가 있는 녹색 버튼, 축소하려면 빼기 표시가 있는 녹색 버튼, 다음 페이지의 지도를 보려면 녹색 화살표를 클릭하세요.


METAR-TAF: